Time,TemperatureF,DewpointF,PressureIn,WindDirection,WindDirectionDegrees,WindSpeedMPH,WindSpeedGustMPH,Humidity,HourlyPrecipIn,Conditions,Clouds,dailyrainin,SolarRadiationWatts/m^2,SoftwareType,DateUTC
2013-08-10 00:02:00,61.0,54.0,-100.00,West,270,0.0,2.0,77,0.00,,,0.00,0.000000,,2013-08-10 05:02:00,
2013-08-10 00:32:00,61.0,53.0,-100.00,WNW,290,0.0,4.0,76,0.00,,,0.00,0.000000,,2013-08-10 05:32:00,
2013-08-10 00:43:00,61.0,53.0,-100.00,WNW,290,0.0,4.0,76,0.00,,,0.00,0.000000,,2013-08-10 05:43:00,
2013-08-10 00:52:00,61.0,53.0,-100.00,WNW,290,0.0,4.0,76,0.00,,,0.00,0.000000,,2013-08-10 05:52:00,
2013-08-10 01:02:00,61.0,53.0,-100.00,WNW,290,0.0,4.0,76,0.00,,,0.00,0.000000,,2013-08-10 06:02:00,
2013-08-10 01:32:00,60.0,53.0,-100.00,WSW,244,0.0,2.0,79,0.00,,,0.00,0.000000,,2013-08-10 06:32:00,
2013-08-10 01:44:00,60.0,53.0,-100.00,WSW,244,0.0,2.0,79,0.00,,,0.00,0.000000,,2013-08-10 06:44:00,
2013-08-10 01:53:00,60.0,53.0,-100.00,WSW,244,0.0,2.0,79,0.00,,,0.00,0.000000,,2013-08-10 06:53:00,
2013-08-10 02:02:00,60.0,53.0,-100.00,WSW,244,0.0,2.0,79,0.00,,,0.00,0.000000,,2013-08-10 07:02:00,
2013-08-10 02:33:00,59.0,54.0,-100.00,West,263,0.0,6.0,82,0.00,,,0.00,0.000000,,2013-08-10 07:33:00,
2013-08-10 02:43:00,59.0,54.0,-100.00,West,263,0.0,6.0,82,0.00,,,0.00,0.000000,,2013-08-10 07:43:00,
2013-08-10 02:52:00,59.0,54.0,-100.00,West,263,0.0,6.0,82,0.00,,,0.00,0.000000,,2013-08-10 07:52:00,
2013-08-10 03:01:00,59.0,54.0,-100.00,West,263,0.0,6.0,82,0.00,,,0.00,0.000000,,2013-08-10 08:01:00,
2013-08-10 03:32:00,59.0,54.0,-100.00,WNW,283,1.0,4.0,84,0.00,,,0.00,0.000000,,2013-08-10 08:32:00,
2013-08-10 03:43:00,59.0,54.0,-100.00,WNW,283,1.0,4.0,84,0.00,,,0.00,0.000000,,2013-08-10 08:43:00,
2013-08-10 03:53:00,59.0,54.0,-100.00,WNW,283,1.0,4.0,84,0.00,,,0.00,0.000000,,2013-08-10 08:53:00,
2013-08-10 04:02:00,59.0,54.0,-100.00,WNW,283,1.0,4.0,84,0.00,,,0.00,0.000000,,2013-08-10 09:02:00,
2013-08-10 04:32:00,58.0,54.0,-100.00,WSW,258,0.0,2.0,86,0.00,,,0.00,0.000000,,2013-08-10 09:32:00,
2013-08-10 04:43:00,58.0,54.0,-100.00,WSW,258,0.0,2.0,86,0.00,,,0.00,0.000000,,2013-08-10 09:43:00,
2013-08-10 04:52:00,58.0,54.0,-100.00,WSW,258,0.0,2.0,86,0.00,,,0.00,0.000000,,2013-08-10 09:52:00,
2013-08-10 05:02:00,58.0,54.0,-100.00,WSW,258,0.0,2.0,86,0.00,,,0.00,0.000000,,2013-08-10 10:02:00,
2013-08-10 05:33:00,58.0,54.0,-100.00,WSW,246,1.0,2.0,87,0.00,,,0.00,0.000000,,2013-08-10 10:33:00,
2013-08-10 05:44:00,58.0,54.0,-100.00,WSW,246,1.0,2.0,87,0.00,,,0.00,0.000000,,2013-08-10 10:44:00,
2013-08-10 05:53:00,58.0,54.0,-100.00,WSW,246,1.0,2.0,87,0.00,,,0.00,0.000000,,2013-08-10 10:53:00,
2013-08-10 06:02:00,58.0,54.0,-100.00,WSW,246,1.0,2.0,87,0.00,,,0.00,0.000000,,2013-08-10 11:02:00,
2013-08-10 08:43:00,61.0,55.0,-100.00,West,279,2.0,5.0,81,-99.99,,,0.00,87.000000,,2013-08-10 13:43:00,
2013-08-10 08:52:00,61.0,55.0,-100.00,West,279,2.0,5.0,81,-99.99,,,0.00,87.000000,,2013-08-10 13:52:00,
2013-08-10 09:02:00,61.0,55.0,-100.00,West,279,2.0,5.0,81,-99.99,,,0.00,87.000000,,2013-08-10 14:02:00,
2013-08-10 09:33:00,63.0,56.0,-100.00,West,278,2.0,5.0,77,0.00,,,0.00,170.000000,,2013-08-10 14:33:00,
2013-08-10 09:43:00,63.0,56.0,-100.00,West,278,2.0,5.0,77,0.00,,,0.00,170.000000,,2013-08-10 14:43:00,
2013-08-10 09:53:00,63.0,56.0,-100.00,West,278,2.0,5.0,77,0.00,,,0.00,170.000000,,2013-08-10 14:53:00,
2013-08-10 10:02:00,63.0,56.0,-100.00,West,278,2.0,5.0,77,0.00,,,0.00,170.000000,,2013-08-10 15:02:00,
2013-08-10 10:34:00,67.0,57.0,-100.00,NNW,335,3.0,6.0,71,0.00,,,0.00,276.000000,,2013-08-10 15:34:00,
2013-08-10 10:43:00,67.0,57.0,-100.00,NNW,335,3.0,6.0,71,0.00,,,0.00,276.000000,,2013-08-10 15:43:00,
2013-08-10 10:52:00,67.0,57.0,-100.00,NNW,335,3.0,6.0,71,0.00,,,0.00,276.000000,,2013-08-10 15:52:00,
2013-08-10 11:01:00,67.0,57.0,-100.00,NNW,335,3.0,6.0,71,0.00,,,0.00,276.000000,,2013-08-10 16:01:00,
2013-08-10 11:32:00,70.0,55.0,-100.00,NW,305,3.0,7.0,58,0.00,,,0.00,514.000000,,2013-08-10 16:32:00,
2013-08-10 11:43:00,70.0,55.0,-100.00,NW,305,3.0,7.0,58,0.00,,,0.00,514.000000,,2013-08-10 16:43:00,
2013-08-10 11:53:00,70.0,55.0,-100.00,NW,305,3.0,7.0,58,0.00,,,0.00,514.000000,,2013-08-10 16:53:00,
2013-08-10 12:02:00,70.0,55.0,-100.00,NW,305,3.0,7.0,58,0.00,,,0.00,514.000000,,2013-08-10 17:02:00,
2013-08-10 12:33:00,74.0,52.0,-100.00,NNW,340,4.0,9.0,46,0.00,,,0.00,656.000000,,2013-08-10 17:33:00,
2013-08-10 12:43:00,74.0,52.0,-100.00,NNW,340,4.0,9.0,46,0.00,,,0.00,656.000000,,2013-08-10 17:43:00,
2013-08-10 12:52:00,74.0,52.0,-100.00,NNW,340,4.0,9.0,46,0.00,,,0.00,656.000000,,2013-08-10 17:52:00,
2013-08-10 13:01:00,74.0,52.0,-100.00,NNW,340,4.0,9.0,46,0.00,,,0.00,656.000000,,2013-08-10 18:01:00,
2013-08-10 13:32:00,72.0,46.0,-100.00,West,280,2.0,10.0,40,0.00,,,0.00,358.000000,,2013-08-10 18:32:00,
2013-08-10 13:44:00,72.0,46.0,-100.00,West,280,2.0,10.0,40,0.00,,,0.00,358.000000,,2013-08-10 18:44:00,
2013-08-10 13:52:00,72.0,46.0,-100.00,West,280,2.0,10.0,40,0.00,,,0.00,358.000000,,2013-08-10 18:52:00,
2013-08-10 14:02:00,72.0,46.0,-100.00,West,280,2.0,10.0,40,0.00,,,0.00,358.000000,,2013-08-10 19:02:00,
2013-08-10 14:33:00,77.0,49.0,-100.00,WNW,289,3.0,9.0,38,0.00,,,0.00,659.000000,,2013-08-10 19:33:00,
2013-08-10 14:44:00,77.0,49.0,-100.00,WNW,289,3.0,9.0,38,0.00,,,0.00,659.000000,,2013-08-10 19:44:00,
2013-08-10 14:53:00,77.0,49.0,-100.00,WNW,289,3.0,9.0,38,0.00,,,0.00,659.000000,,2013-08-10 19:53:00,
2013-08-10 15:02:00,77.0,49.0,-100.00,WNW,289,3.0,9.0,38,0.00,,,0.00,659.000000,,2013-08-10 20:02:00,
2013-08-10 15:33:00,76.0,49.0,-100.00,West,262,2.0,8.0,39,0.00,,,0.00,548.000000,,2013-08-10 20:33:00,
2013-08-10 15:43:00,76.0,49.0,-100.00,West,262,2.0,8.0,39,0.00,,,0.00,548.000000,,2013-08-10 20:43:00,
2013-08-10 15:53:00,76.0,49.0,-100.00,West,262,2.0,8.0,39,0.00,,,0.00,548.000000,,2013-08-10 20:53:00,
2013-08-10 16:02:00,76.0,49.0,-100.00,West,262,2.0,8.0,39,0.00,,,0.00,548.000000,,2013-08-10 21:02:00,
2013-08-10 16:32:00,78.0,49.0,-100.00,SW,214,3.0,8.0,36,0.00,,,0.00,607.000000,,2013-08-10 21:32:00,
2013-08-10 16:42:00,78.0,49.0,-100.00,SW,214,3.0,8.0,36,0.00,,,0.00,607.000000,,2013-08-10 21:42:00,
2013-08-10 16:52:00,78.0,49.0,-100.00,SW,214,3.0,8.0,36,0.00,,,0.00,607.000000,,2013-08-10 21:52:00,
2013-08-10 17:01:00,78.0,49.0,-100.00,SW,214,3.0,8.0,36,0.00,,,0.00,607.000000,,2013-08-10 22:01:00,
2013-08-10 17:32:00,77.0,49.0,-100.00,SSW,200,4.0,10.0,38,0.00,,,0.00,697.000000,,2013-08-10 22:32:00,
2013-08-10 17:43:00,77.0,49.0,-100.00,SSW,200,4.0,10.0,38,0.00,,,0.00,697.000000,,2013-08-10 22:43:00,
2013-08-10 17:52:00,77.0,49.0,-100.00,SSW,200,4.0,10.0,38,0.00,,,0.00,697.000000,,2013-08-10 22:52:00,
2013-08-10 18:01:00,77.0,49.0,-100.00,SSW,200,4.0,10.0,38,0.00,,,0.00,697.000000,,2013-08-10 23:01:00,
2013-08-10 18:33:00,71.0,52.0,-100.00,West,262,0.0,9.0,52,0.00,,,0.00,237.000000,,2013-08-10 23:33:00,
2013-08-10 18:43:00,71.0,52.0,-100.00,West,262,0.0,9.0,52,0.00,,,0.00,237.000000,,2013-08-10 23:43:00,
2013-08-10 18:53:00,71.0,52.0,-100.00,West,262,0.0,9.0,52,0.00,,,0.00,237.000000,,2013-08-10 23:53:00,
2013-08-10 19:02:00,71.0,52.0,-100.00,West,262,0.0,9.0,52,0.00,,,0.00,237.000000,,2013-08-11 00:02:00,
2013-08-10 19:32:00,73.0,50.0,-100.00,West,261,3.0,7.0,45,0.00,,,0.00,152.000000,,2013-08-11 00:32:00,
2013-08-10 19:42:00,73.0,50.0,-100.00,West,261,3.0,7.0,45,0.00,,,0.00,152.000000,,2013-08-11 00:42:00,
2013-08-10 19:52:00,73.0,50.0,-100.00,West,261,3.0,7.0,45,0.00,,,0.00,152.000000,,2013-08-11 00:52:00,
2013-08-10 20:01:00,73.0,50.0,-100.00,West,261,3.0,7.0,45,0.00,,,0.00,152.000000,,2013-08-11 01:01:00,
2013-08-10 20:32:00,66.0,55.0,-100.00,WSW,242,0.0,5.0,67,0.00,,,0.00,73.000000,,2013-08-11 01:32:00,
2013-08-10 20:43:00,66.0,55.0,-100.00,WSW,242,0.0,5.0,67,0.00,,,0.00,73.000000,,2013-08-11 01:43:00,
2013-08-10 20:54:00,66.0,55.0,-100.00,WSW,242,0.0,5.0,67,0.00,,,0.00,73.000000,,2013-08-11 01:54:00,
2013-08-10 21:02:00,66.0,55.0,-100.00,WSW,242,0.0,5.0,67,0.00,,,0.00,73.000000,,2013-08-11 02:02:00,
2013-08-10 21:32:00,59.0,54.0,-100.00,WSW,242,0.0,0.0,84,0.00,,,0.00,4.000000,,2013-08-11 02:32:00,
2013-08-10 21:43:00,59.0,54.0,-100.00,WSW,242,0.0,0.0,84,0.00,,,0.00,4.000000,,2013-08-11 02:43:00,
2013-08-10 21:57:00,59.0,54.0,-100.00,WSW,242,0.0,0.0,84,0.00,,,0.00,4.000000,,2013-08-11 02:57:00,
2013-08-10 22:05:00,59.0,54.0,-100.00,WSW,242,0.0,0.0,84,0.00,,,0.00,4.000000,,2013-08-11 03:05:00,
2013-08-10 22:36:00,54.0,51.0,-100.00,WSW,242,0.0,0.0,91,0.00,,,0.00,0.000000,,2013-08-11 03:36:00,
2013-08-10 22:46:00,54.0,51.0,-100.00,WSW,242,0.0,0.0,91,0.00,,,0.00,0.000000,,2013-08-11 03:46:00,
2013-08-10 22:57:00,54.0,51.0,-100.00,WSW,242,0.0,0.0,91,0.00,,,0.00,0.000000,,2013-08-11 03:57:00,
2013-08-10 23:01:00,54.0,51.0,-100.00,WSW,242,0.0,0.0,91,0.00,,,0.00,0.000000,,2013-08-11 04:01:00,
2013-08-10 23:32:00,52.0,50.0,-100.00,WSW,242,0.0,1.0,94,0.00,,,0.00,0.000000,,2013-08-11 04:32:00,
2013-08-10 23:43:00,52.0,50.0,-100.00,WSW,242,0.0,1.0,94,0.00,,,0.00,0.000000,,2013-08-11 04:43:00,
2013-08-10 23:53:00,52.0,50.0,-100.00,WSW,242,0.0,1.0,94,0.00,,,0.00,0.000000,,2013-08-11 04:53:00,